Terminal Aerodrome Forecast
Issued by NWS Dallas/Fort Worth, TX

Home | Current Version | Previous Version | Text Only | Print | Product List | Glossary On
Versions: 1 2 3 4 5 6 7 8 9 10 11 12 13 14 15 16 17 18 19 20 21 22 23 24 25 26 27 28 29 30 31 32 33 34
389
FTUS44 KFWD 290619 AAA
TAFACT
TAF AMD
KACT 290619Z 2906/3006 15017KT P6SM BKN020
     FM290715 28020G30KT 3SM TSRA BKN019 OVC050CB
     FM290830 20016KT 5SM -RA VCTS BKN025CB
     FM291100 19014KT P6SM VCSH BKN035
     FM291500 18014KT P6SM SCT040 BKN090
     FM291900 21013KT P6SM SCT300=

USA.gov is the U.S. government's official web portal to all federal, state and local government web resources and services.